createdAt,value
2019-04-29T00:00:15.454Z,6.37
2019-04-29T00:05:17.793Z,8.27
2019-04-29T00:10:21.132Z,13.37
2019-04-29T00:15:39.942Z,12.57
2019-04-29T00:20:43.863Z,7.63
2019-04-29T00:25:46.190Z,7.07
2019-04-29T00:30:48.567Z,7.93
2019-04-29T00:35:50.933Z,4.40
2019-04-29T00:41:00.833Z,5.37
2019-04-29T00:46:03.394Z,7.00
2019-04-29T00:51:05.785Z,4.90
2019-04-29T00:56:08.193Z,15.10
2019-04-29T01:01:12.563Z,7.67
2019-04-29T01:06:14.864Z,10.23
2019-04-29T01:11:17.134Z,8.03
2019-04-29T01:16:19.407Z,5.30
2019-04-29T01:21:21.819Z,4.37
2019-04-29T01:26:42.432Z,7.00
2019-04-29T01:31:44.780Z,5.43
2019-04-29T01:36:47.808Z,4.67
2019-04-29T01:42:06.971Z,3.53
2019-04-29T01:47:09.295Z,6.23
2019-04-29T01:52:12.345Z,4.55
2019-04-29T01:57:14.752Z,7.07
2019-04-29T02:02:17.101Z,7.13
2019-04-29T02:07:19.394Z,9.67
2019-04-29T02:12:21.659Z,3.87
2019-04-29T02:17:24.143Z,6.77
2019-04-29T02:22:37.099Z,5.77
2019-04-29T02:27:39.379Z,3.37
2019-04-29T02:32:41.649Z,6.60
2019-04-29T02:37:44.683Z,5.10
2019-04-29T02:42:51.468Z,4.47
2019-04-29T02:47:53.731Z,4.08
2019-04-29T02:52:56.069Z,4.13
2019-04-29T02:58:00.039Z,5.93
2019-04-29T03:03:03.967Z,4.63
2019-04-29T03:08:06.303Z,7.70
2019-04-29T03:13:08.585Z,5.80
2019-04-29T03:18:10.952Z,3.43
2019-04-29T03:23:14.924Z,5.73
2019-04-29T03:28:17.183Z,3.83
2019-04-29T03:33:19.469Z,5.00
2019-04-29T03:38:21.747Z,3.20
2019-04-29T03:43:24.089Z,5.57
2019-04-29T03:48:27.008Z,5.83
2019-04-29T03:58:42.714Z,5.93
2019-04-29T04:03:46.942Z,6.17
2019-04-29T04:09:04.736Z,6.23
2019-04-29T04:13:54.967Z,6.30
2019-04-29T04:19:08.041Z,7.17
2019-04-29T04:24:10.372Z,6.10
2019-04-29T04:29:12.640Z,6.23
2019-04-29T04:34:14.990Z,9.27
2019-04-29T04:39:17.252Z,9.17
2019-04-29T04:44:19.528Z,4.37
2019-04-29T04:49:21.799Z,6.40
2019-04-29T04:54:24.101Z,9.20
2019-04-29T04:59:26.422Z,10.13
2019-04-29T05:04:28.717Z,9.07
2019-04-29T05:09:31.074Z,8.00
2019-04-29T05:14:33.357Z,5.53
2019-04-29T05:19:35.646Z,5.70
2019-04-29T05:24:37.921Z,10.17
2019-04-29T05:29:40.180Z,4.23
2019-04-29T05:34:46.544Z,6.90
2019-04-29T05:39:48.097Z,6.77
2019-04-29T05:45:06.985Z,8.97
2019-04-29T05:50:16.855Z,10.53
2019-04-29T05:55:17.817Z,7.60
2019-04-29T06:00:23.316Z,6.87
2019-04-29T06:05:24.963Z,10.80
2019-04-29T06:10:27.466Z,6.10
2019-04-29T06:15:29.727Z,9.98
2019-04-29T06:20:32.024Z,5.30
2019-04-29T06:25:34.368Z,6.50
2019-04-29T06:30:40.472Z,8.17
2019-04-29T06:35:43.321Z,7.53
2019-04-29T06:40:45.064Z,5.70
2019-04-29T06:45:47.441Z,5.63
2019-04-29T06:50:49.958Z,6.27
2019-04-29T06:55:52.329Z,6.40
2019-04-29T07:00:55.757Z,5.90
2019-04-29T07:05:58.609Z,3.77
2019-04-29T07:11:03.031Z,6.63
2019-04-29T07:16:05.439Z,5.50
2019-04-29T07:21:11.896Z,5.90
2019-04-29T07:26:11.717Z,5.50
2019-04-29T07:31:14.048Z,6.73
2019-04-29T07:36:18.638Z,5.37
2019-04-29T07:41:20.826Z,7.60
2019-04-29T07:46:24.888Z,6.33
2019-04-29T07:51:28.402Z,5.47
2019-04-29T07:56:30.922Z,5.80
2019-04-29T08:01:33.217Z,4.47
2019-04-29T08:06:38.171Z,11.60
2019-04-29T08:11:39.582Z,6.43
2019-04-29T08:16:41.868Z,5.83
2019-04-29T08:21:45.450Z,6.47
2019-04-29T08:26:48.279Z,6.87
2019-04-29T08:31:55.165Z,6.57
2019-04-29T08:36:54.647Z,4.27
2019-04-29T08:41:58.804Z,5.13
2019-04-29T08:47:15.347Z,7.60
2019-04-29T08:52:17.748Z,4.47
2019-04-29T08:57:20.018Z,10.15
2019-04-29T09:02:34.381Z,5.60
2019-04-29T09:07:26.303Z,6.22
2019-04-29T09:12:29.371Z,5.42
2019-04-29T09:17:32.071Z,5.17
2019-04-29T09:22:35.984Z,6.03
2019-04-29T09:27:40.763Z,6.36
2019-04-29T09:32:44.226Z,7.47
2019-04-29T09:37:46.497Z,5.72
2019-04-29T09:42:57.147Z,4.40
2019-04-29T09:48:00.044Z,5.40
2019-04-29T09:53:02.431Z,6.47
2019-04-29T09:58:04.742Z,6.00
2019-04-29T10:03:18.014Z,8.05
2019-04-29T10:08:20.283Z,7.03
2019-04-29T10:13:23.057Z,12.23
2019-04-29T10:18:29.723Z,9.23
2019-04-29T10:23:31.200Z,12.13
2019-04-29T10:28:35.178Z,6.85
2019-04-29T10:33:37.541Z,7.60
2019-04-29T10:38:40.466Z,6.33
2019-04-29T10:44:01.823Z,7.17
2019-04-29T10:49:08.346Z,13.90
2019-04-29T10:54:14.223Z,5.85
2019-04-29T10:59:16.048Z,10.98
2019-04-29T11:04:18.600Z,10.18
2019-04-29T11:09:24.060Z,4.17
2019-04-29T11:14:26.347Z,5.67
2019-04-29T11:19:28.694Z,7.95
2019-04-29T11:24:41.615Z,8.43
2019-04-29T11:29:43.899Z,6.65
2019-04-29T11:34:53.421Z,6.50
2019-04-29T11:39:57.114Z,7.72
2019-04-29T11:45:02.102Z,7.17
2019-04-29T11:50:13.619Z,7.37
2019-04-29T11:55:18.632Z,7.40
2019-04-29T12:00:38.494Z,8.03
2019-04-29T12:05:44.887Z,7.90
2019-04-29T12:11:07.543Z,7.92
2019-04-29T12:16:24.611Z,6.72
2019-04-29T12:21:29.539Z,6.90
2019-04-29T12:26:35.001Z,9.83
2019-04-29T12:31:40.818Z,4.92
2019-04-29T12:36:54.965Z,9.15
2019-04-29T12:41:49.401Z,8.45
2019-04-29T12:46:53.491Z,9.80
2019-04-29T12:51:55.768Z,6.42
2019-04-29T12:56:58.037Z,5.35
2019-04-29T13:02:19.973Z,7.30
2019-04-29T13:07:24.068Z,8.18
2019-04-29T13:12:30.248Z,8.18
2019-04-29T13:17:35.867Z,7.78
2019-04-29T13:22:38.394Z,6.35
2019-04-29T13:27:40.672Z,6.70
2019-04-29T13:32:43.045Z,5.20
2019-04-29T13:37:45.385Z,10.58
2019-04-29T13:42:49.250Z,5.83
2019-04-29T13:47:53.418Z,12.03
2019-04-29T13:52:56.434Z,5.22
2019-04-29T13:57:58.714Z,6.65
2019-04-29T14:03:07.107Z,8.05
2019-04-29T14:08:09.705Z,6.62
2019-04-29T14:13:16.861Z,21.25
2019-04-29T14:18:16.040Z,5.92
2019-04-29T14:23:18.358Z,9.80
2019-04-29T14:28:20.731Z,7.95
2019-04-29T14:33:26.179Z,9.88
2019-04-29T14:38:28.964Z,5.72
2019-04-29T14:43:38.752Z,6.75
2019-04-29T14:48:43.070Z,6.15
2019-04-29T14:53:56.204Z,9.48
2019-04-29T14:58:49.663Z,6.45
2019-04-29T15:03:53.885Z,8.93
2019-04-29T15:08:56.522Z,7.33
2019-04-29T15:14:22.965Z,7.95
2019-04-29T15:19:38.728Z,6.97
2019-04-29T15:24:41.202Z,3.83
2019-04-29T15:29:43.477Z,6.15
2019-04-29T15:34:48.037Z,22.22
2019-04-29T15:39:49.804Z,9.15
2019-04-29T15:44:55.886Z,9.33
2019-04-29T15:50:00.769Z,8.70
2019-04-29T15:55:00.204Z,11.20
2019-04-29T16:00:20.154Z,7.08
2019-04-29T16:05:10.278Z,4.95
2019-04-29T16:10:30.547Z,6.37
2019-04-29T16:20:41.019Z,8.60
2019-04-29T16:30:47.387Z,4.83
2019-04-29T16:35:49.712Z,5.85
2019-04-29T16:40:57.376Z,5.40
2019-04-29T16:46:07.237Z,6.28
2019-04-29T16:51:14.168Z,7.00
2019-04-29T16:56:16.356Z,3.62
2019-04-29T17:01:18.446Z,6.87
2019-04-29T17:06:20.750Z,3.92
2019-04-29T17:11:36.927Z,4.42
2019-04-29T17:16:39.269Z,3.10
2019-04-29T17:21:41.622Z,3.77
2019-04-29T17:26:57.736Z,6.28
2019-04-29T17:32:18.911Z,2.87
2019-04-29T17:35:14.119Z,15.28
2019-04-29T17:37:21.843Z,3.58
2019-04-29T17:42:25.112Z,6.20
2019-04-29T17:47:49.157Z,5.73
2019-04-29T17:52:51.620Z,5.50
2019-04-29T17:58:07.813Z,7.27
2019-04-29T18:03:28.136Z,7.97
2019-04-29T18:08:38.093Z,7.47
2019-04-29T18:13:40.451Z,9.10
2019-04-29T18:18:57.288Z,10.30
2019-04-29T18:23:59.213Z,8.10
2019-04-29T18:29:03.323Z,7.53
2019-04-29T18:34:05.643Z,6.50
2019-04-29T18:39:09.712Z,6.20
2019-04-29T18:44:19.166Z,5.47
2019-04-29T18:49:16.139Z,8.87
2019-04-29T18:54:18.689Z,9.73
2019-04-29T18:59:25.241Z,8.50
2019-04-29T19:04:32.433Z,11.17
2019-04-29T19:09:37.157Z,7.87
2019-04-29T19:14:39.736Z,8.43
2019-04-29T19:19:42.057Z,7.90
2019-04-29T19:24:47.960Z,13.30
2019-04-29T19:29:48.351Z,10.50
2019-04-29T19:34:54.887Z,8.83
2019-04-29T19:39:57.050Z,10.67
2019-04-29T19:44:58.656Z,8.60
2019-04-29T19:50:00.958Z,9.53
2019-04-29T19:55:11.132Z,11.37
2019-04-29T20:00:17.367Z,9.00
2019-04-29T20:05:23.795Z,13.03
2019-04-29T20:10:28.485Z,13.22
2019-04-29T20:20:46.033Z,12.80
2019-04-29T20:25:48.574Z,12.23
2019-04-29T20:30:56.981Z,11.40
2019-04-29T20:35:56.268Z,10.40
2019-04-29T20:40:59.370Z,8.70
2019-04-29T20:46:02.452Z,10.33
2019-04-29T20:51:13.341Z,11.37
2019-04-29T20:56:12.455Z,12.67
2019-04-29T21:01:15.619Z,13.50
2019-04-29T21:06:18.230Z,11.13
2019-04-29T21:11:22.303Z,11.97
2019-04-29T21:16:29.055Z,8.47
2019-04-29T21:21:30.221Z,10.23
2019-04-29T21:26:32.586Z,12.23
2019-04-29T21:31:35.508Z,9.90
2019-04-29T21:36:39.591Z,11.87
2019-04-29T21:41:43.531Z,11.07
2019-04-29T21:46:45.893Z,10.00
2019-04-29T21:51:49.834Z,11.20
2019-04-29T21:56:52.246Z,11.00
2019-04-29T22:01:56.208Z,10.20
2019-04-29T22:06:59.942Z,11.47
2019-04-29T22:12:03.018Z,9.30
2019-04-29T22:17:05.556Z,12.83
2019-04-29T22:22:07.834Z,11.70
2019-04-29T22:27:10.195Z,10.57
2019-04-29T22:32:15.188Z,11.97
2019-04-29T22:37:17.416Z,12.90
2019-04-29T22:42:27.819Z,15.20
2019-04-29T22:47:28.285Z,15.10
2019-04-29T22:52:31.476Z,12.87
2019-04-29T22:57:33.903Z,17.93
2019-04-29T23:02:36.202Z,16.10
2019-04-29T23:07:38.506Z,17.73
2019-04-29T23:12:40.748Z,21.40
2019-04-29T23:17:47.440Z,23.97
2019-04-29T23:22:57.930Z,25.90
2019-04-29T23:28:00.351Z,21.47
2019-04-29T23:33:02.623Z,26.53
2019-04-29T23:38:09.283Z,26.77
2019-04-29T23:43:09.517Z,22.27
2019-04-29T23:48:11.816Z,20.87
2019-04-29T23:53:14.206Z,29.60
2019-04-29T23:58:24.203Z,24.93
